createdAt,value
2022-12-15T00:01:58.695Z,24.95
2022-12-15T00:04:43.591Z,35.10
2022-12-15T00:07:28.439Z,26.60
2022-12-15T00:10:13.279Z,24.48
2022-12-15T00:12:58.091Z,26.45
2022-12-15T00:15:43.184Z,27.23
2022-12-15T00:18:29.345Z,27.58
2022-12-15T00:21:18.250Z,32.97
2022-12-15T00:24:03.451Z,26.08
2022-12-15T00:26:48.843Z,34.63
2022-12-15T00:29:33.554Z,25.35
2022-12-15T00:32:18.567Z,25.33
2022-12-15T00:35:03.811Z,32.55
2022-12-15T00:37:48.711Z,23.45
2022-12-15T00:40:15.400Z,24.27
2022-12-15T00:42:42.032Z,27.98
2022-12-15T00:45:09.409Z,27.10
2022-12-15T00:47:36.471Z,26.90
2022-12-15T00:50:21.872Z,22.73
2022-12-15T00:53:07.028Z,27.77
2022-12-15T00:55:52.132Z,28.10
2022-12-15T00:58:37.271Z,24.80
2022-12-15T01:01:26.815Z,25.50
2022-12-15T01:04:12.612Z,27.67
2022-12-15T01:06:57.906Z,27.15
2022-12-15T01:09:42.931Z,24.13
2022-12-15T01:12:28.119Z,25.10
2022-12-15T01:15:13.026Z,22.67
2022-12-15T01:17:57.892Z,28.70
2022-12-15T01:20:24.434Z,27.23
2022-12-15T01:22:53.332Z,23.40
2022-12-15T01:25:25.016Z,24.15
2022-12-15T01:27:52.098Z,30.92
2022-12-15T01:30:21.658Z,45.63
2022-12-15T01:32:48.770Z,42.38
2022-12-15T01:35:15.932Z,33.13
2022-12-15T01:37:42.539Z,28.10
2022-12-15T01:40:32.213Z,32.90
2022-12-15T01:42:58.891Z,34.28
2022-12-15T01:45:28.500Z,70.65
2022-12-15T01:47:57.868Z,64.47
2022-12-15T01:50:26.194Z,45.53
2022-12-15T01:52:54.145Z,33.33
2022-12-15T01:55:22.672Z,53.35
2022-12-15T01:57:51.434Z,44.13
2022-12-15T02:00:18.056Z,36.22
2022-12-15T02:02:44.849Z,41.72
2022-12-15T02:05:11.639Z,31.92
2022-12-15T02:07:38.204Z,34.45
2022-12-15T02:10:07.405Z,37.22
2022-12-15T02:13:03.472Z,34.80
2022-12-15T02:15:39.343Z,26.60
2022-12-15T02:18:43.393Z,25.05
2022-12-15T02:21:30.929Z,26.30
2022-12-15T02:24:16.191Z,24.42
2022-12-15T02:26:57.500Z,27.35
2022-12-15T02:30:01.006Z,27.95
2022-12-15T02:32:37.338Z,26.15
2022-12-15T02:35:09.731Z,24.13
2022-12-15T02:37:38.351Z,25.92
2022-12-15T02:40:06.750Z,26.65
2022-12-15T02:42:36.030Z,26.05
2022-12-15T02:45:12.530Z,25.55
2022-12-15T02:47:46.347Z,27.02
2022-12-15T02:50:31.205Z,22.17
2022-12-15T02:53:12.927Z,22.45
2022-12-15T02:55:50.434Z,23.33
2022-12-15T02:58:44.918Z,31.73
2022-12-15T03:01:31.526Z,26.60
2022-12-15T03:03:59.983Z,27.05
2022-12-15T03:06:27.023Z,23.60
2022-12-15T03:08:53.611Z,25.80
2022-12-15T03:11:20.154Z,24.52
2022-12-15T03:13:46.789Z,23.40
2022-12-15T03:16:16.796Z,17.02
2022-12-15T03:18:43.566Z,26.65
2022-12-15T03:21:10.155Z,27.65
2022-12-15T03:23:36.721Z,29.02
2022-12-15T03:26:03.368Z,25.50
2022-12-15T03:28:29.912Z,25.73
2022-12-15T03:30:56.544Z,24.38
2022-12-15T03:33:23.103Z,22.50
2022-12-15T03:35:51.031Z,25.40
2022-12-15T03:38:18.596Z,21.13
2022-12-15T03:40:45.279Z,23.80
2022-12-15T03:43:11.820Z,24.63
2022-12-15T03:45:38.440Z,26.70
2022-12-15T03:48:05.132Z,21.42
2022-12-15T03:50:31.687Z,20.17
2022-12-15T03:53:00.645Z,21.60
2022-12-15T03:55:31.138Z,24.67
2022-12-15T03:57:59.292Z,21.00
2022-12-15T04:00:26.780Z,24.38
2022-12-15T04:02:53.910Z,22.08
2022-12-15T04:05:26.331Z,23.02
2022-12-15T04:07:57.719Z,28.70
2022-12-15T04:10:30.209Z,24.98
2022-12-15T04:13:01.827Z,21.92
2022-12-15T04:15:28.461Z,27.58
2022-12-15T04:17:55.391Z,24.27
2022-12-15T04:20:22.735Z,22.85
2022-12-15T04:22:50.584Z,24.58
2022-12-15T04:25:38.940Z,25.80
2022-12-15T04:28:24.438Z,28.85
2022-12-15T04:31:12.757Z,25.42
2022-12-15T04:34:00.186Z,27.15
2022-12-15T04:36:46.004Z,23.65
2022-12-15T04:39:31.155Z,23.77
2022-12-15T04:42:17.857Z,28.67
2022-12-15T04:45:03.004Z,24.00
2022-12-15T04:47:48.094Z,23.13
2022-12-15T04:50:33.006Z,27.95
2022-12-15T04:53:34.091Z,28.17
2022-12-15T04:56:20.230Z,35.95
2022-12-15T04:59:05.911Z,31.65
2022-12-15T05:01:52.700Z,31.77
2022-12-15T05:04:38.012Z,29.20
2022-12-15T05:07:23.259Z,28.27
2022-12-15T05:10:14.390Z,24.30
2022-12-15T05:13:00.218Z,28.10
2022-12-15T05:15:45.261Z,30.98
2022-12-15T05:18:30.442Z,30.52
2022-12-15T05:21:17.200Z,28.67
2022-12-15T05:24:02.388Z,31.17
2022-12-15T05:26:52.396Z,28.48
2022-12-15T05:29:38.309Z,32.80
2022-12-15T05:32:04.922Z,30.63
2022-12-15T05:34:33.330Z,25.40
2022-12-15T05:37:01.818Z,29.05
2022-12-15T05:39:28.592Z,22.75
2022-12-15T05:41:56.314Z,28.27
2022-12-15T05:44:23.779Z,24.13
2022-12-15T05:46:50.463Z,27.60
2022-12-15T05:49:18.182Z,25.98
2022-12-15T05:51:46.510Z,24.73
2022-12-15T05:54:17.681Z,26.30
2022-12-15T05:56:45.030Z,27.10
2022-12-15T05:59:11.605Z,30.65
2022-12-15T06:01:38.409Z,29.92
2022-12-15T06:04:05.260Z,27.35
2022-12-15T06:06:31.963Z,26.85
2022-12-15T06:08:59.588Z,27.08
2022-12-15T06:11:26.302Z,24.55
2022-12-15T06:13:55.401Z,25.15
2022-12-15T06:16:24.292Z,26.60
2022-12-15T06:18:54.223Z,23.73
2022-12-15T06:21:26.586Z,23.83
2022-12-15T06:23:53.355Z,27.80
2022-12-15T06:26:23.105Z,24.27
2022-12-15T06:28:50.591Z,29.35
2022-12-15T06:31:19.716Z,25.27
2022-12-15T06:33:46.339Z,26.17
2022-12-15T06:36:14.716Z,25.08
2022-12-15T06:38:43.648Z,29.05
2022-12-15T06:41:15.515Z,28.88
2022-12-15T06:43:42.321Z,25.30
2022-12-15T06:46:09.505Z,27.67
2022-12-15T06:48:36.259Z,26.92
2022-12-15T06:51:10.788Z,24.45
2022-12-15T06:53:42.758Z,33.15
2022-12-15T06:56:30.637Z,28.48
2022-12-15T06:59:00.381Z,24.35
2022-12-15T07:01:27.829Z,27.17
2022-12-15T07:03:55.345Z,24.27
2022-12-15T07:06:22.164Z,25.35
2022-12-15T07:08:54.321Z,25.67
2022-12-15T07:11:22.045Z,32.63
2022-12-15T07:13:50.343Z,25.95
2022-12-15T07:16:16.931Z,30.00
2022-12-15T07:18:43.630Z,27.67
2022-12-15T07:21:10.976Z,31.15
2022-12-15T07:23:55.688Z,30.85
2022-12-15T07:26:23.818Z,25.35
2022-12-15T07:28:50.558Z,24.65
2022-12-15T07:31:17.995Z,25.50
2022-12-15T07:33:44.899Z,29.13
2022-12-15T07:36:11.575Z,31.20
2022-12-15T07:38:38.310Z,29.55
2022-12-15T07:41:07.262Z,28.10
2022-12-15T07:43:35.129Z,30.75
2022-12-15T07:46:02.662Z,26.60
2022-12-15T07:48:29.442Z,30.90
2022-12-15T07:51:07.323Z,32.03
2022-12-15T07:53:35.346Z,31.58
2022-12-15T07:56:08.595Z,28.92
2022-12-15T07:58:36.306Z,30.13
2022-12-15T08:01:05.239Z,26.52
2022-12-15T08:03:32.457Z,25.42
2022-12-15T08:06:04.514Z,23.77
2022-12-15T08:08:32.511Z,30.20
2022-12-15T08:14:00.906Z,27.10
2022-12-15T08:16:12.784Z,31.50
2022-12-15T08:18:39.624Z,33.40
2022-12-15T08:21:09.904Z,27.08
2022-12-15T08:23:37.785Z,33.75
2022-12-15T08:26:06.905Z,33.10
2022-12-15T08:28:34.711Z,31.27
2022-12-15T08:31:05.767Z,26.80
2022-12-15T08:33:33.381Z,29.42
2022-12-15T08:36:03.134Z,29.33
2022-12-15T08:38:31.005Z,30.40
2022-12-15T08:40:57.875Z,30.35
2022-12-15T08:43:24.577Z,26.38
2022-12-15T08:45:51.150Z,26.17
2022-12-15T08:48:17.769Z,28.30
2022-12-15T08:50:45.664Z,37.33
2022-12-15T08:53:41.418Z,31.20
2022-12-15T08:56:07.216Z,30.63
2022-12-15T08:58:34.310Z,29.20
2022-12-15T09:01:06.638Z,32.63
2022-12-15T09:03:35.183Z,31.23
2022-12-15T09:06:06.799Z,28.48
2022-12-15T09:08:34.442Z,33.80
2022-12-15T09:11:01.790Z,29.17
2022-12-15T09:13:29.016Z,31.47
2022-12-15T09:16:09.778Z,30.65
2022-12-15T09:18:37.199Z,36.72
2022-12-15T09:21:05.984Z,32.53
2022-12-15T09:23:33.266Z,32.80
2022-12-15T09:26:08.185Z,31.05
2022-12-15T09:28:34.983Z,32.17
2022-12-15T09:31:09.789Z,32.22
2022-12-15T09:33:36.767Z,30.73
2022-12-15T09:36:04.386Z,33.25
2022-12-15T09:38:31.436Z,35.88
2022-12-15T09:40:57.972Z,32.60
2022-12-15T09:43:35.909Z,32.25
2022-12-15T09:46:12.264Z,34.72
2022-12-15T09:48:40.650Z,32.72
2022-12-15T09:51:10.699Z,35.00
2022-12-15T09:56:28.996Z,36.83
2022-12-15T09:59:03.791Z,31.95
2022-12-15T10:01:58.028Z,35.53
2022-12-15T10:04:34.065Z,38.05
2022-12-15T10:07:04.903Z,33.70
2022-12-15T10:09:31.587Z,35.63
2022-12-15T10:12:12.552Z,35.70
2022-12-15T10:15:06.603Z,37.78
2022-12-15T10:17:42.271Z,33.97
2022-12-15T10:20:18.820Z,37.00
2022-12-15T10:22:46.020Z,33.45
2022-12-15T10:25:27.448Z,34.10
2022-12-15T10:28:05.558Z,32.40
2022-12-15T10:30:32.535Z,40.53
2022-12-15T10:33:19.988Z,33.35
2022-12-15T10:35:47.127Z,35.17
2022-12-15T10:38:40.375Z,32.33
2022-12-15T10:41:12.584Z,32.58
2022-12-15T10:43:44.736Z,34.65
2022-12-15T10:46:18.540Z,35.92
2022-12-15T10:48:48.418Z,35.28
2022-12-15T10:51:31.564Z,33.08
2022-12-15T10:54:10.216Z,33.50
2022-12-15T10:56:58.908Z,37.97
2022-12-15T10:59:25.482Z,34.80
2022-12-15T11:01:52.490Z,35.05
2022-12-15T11:04:26.378Z,41.03
2022-12-15T11:06:57.596Z,35.97
2022-12-15T11:09:35.798Z,28.55
2022-12-15T11:14:49.892Z,36.38
2022-12-15T11:17:22.191Z,33.00
2022-12-15T11:20:05.031Z,34.60
2022-12-15T11:22:37.785Z,32.30
2022-12-15T11:25:22.264Z,32.15
2022-12-15T11:27:50.507Z,32.42
2022-12-15T11:30:20.499Z,31.77
2022-12-15T11:33:05.238Z,32.75
2022-12-15T11:36:13.406Z,26.42
2022-12-15T11:38:52.519Z,33.72
2022-12-15T11:41:28.006Z,38.40
2022-12-15T11:44:27.644Z,33.90
2022-12-15T11:47:31.653Z,32.53
2022-12-15T11:50:22.355Z,34.60
2022-12-15T11:53:10.318Z,34.97
2022-12-15T11:56:16.107Z,33.85
2022-12-15T11:58:54.838Z,32.08
2022-12-15T12:01:53.971Z,31.13
2022-12-15T12:04:23.566Z,27.83
2022-12-15T12:06:50.071Z,33.05
2022-12-15T12:09:29.572Z,30.75
2022-12-15T12:12:02.237Z,33.58
2022-12-15T12:14:56.034Z,28.63
2022-12-15T12:17:48.076Z,33.28
2022-12-15T12:20:18.390Z,33.75
2022-12-15T12:23:16.143Z,33.50
2022-12-15T12:26:03.472Z,30.63
2022-12-15T12:28:41.208Z,29.38
2022-12-15T12:31:25.830Z,30.10
2022-12-15T12:33:55.648Z,32.55
2022-12-15T12:36:22.411Z,29.08
2022-12-15T12:38:53.034Z,30.80
2022-12-15T12:41:26.068Z,28.48
2022-12-15T12:43:58.848Z,28.08
2022-12-15T12:46:34.492Z,30.85
2022-12-15T12:49:07.471Z,28.38
2022-12-15T12:51:35.306Z,33.78
2022-12-15T12:54:02.298Z,29.15
2022-12-15T12:56:44.356Z,28.50
2022-12-15T12:59:30.699Z,30.90
2022-12-15T13:02:15.715Z,27.58
2022-12-15T13:04:47.417Z,27.00
2022-12-15T13:07:32.723Z,28.50
2022-12-15T13:10:17.254Z,25.58
2022-12-15T13:12:54.332Z,26.42
2022-12-15T13:15:27.343Z,29.92
2022-12-15T13:18:07.751Z,28.60
2022-12-15T13:20:36.866Z,27.38
2022-12-15T13:23:21.870Z,23.67
2022-12-15T13:25:57.179Z,30.98
2022-12-15T13:28:50.480Z,25.30
2022-12-15T13:31:17.461Z,25.60
2022-12-15T13:33:45.064Z,24.15
2022-12-15T13:36:12.193Z,23.85
2022-12-15T13:38:57.116Z,26.63
2022-12-15T13:41:24.557Z,27.45
2022-12-15T13:43:52.235Z,28.30
2022-12-15T13:46:23.877Z,24.60
2022-12-15T13:49:02.176Z,30.80
2022-12-15T13:54:15.368Z,26.85
2022-12-15T13:56:47.880Z,24.30
2022-12-15T13:59:40.848Z,25.05
2022-12-15T14:02:28.222Z,26.60
2022-12-15T14:05:07.128Z,26.77
2022-12-15T14:07:34.956Z,23.02
2022-12-15T14:10:01.823Z,22.48
2022-12-15T14:12:29.190Z,23.13
2022-12-15T14:14:56.132Z,23.20
2022-12-15T14:17:22.734Z,22.13
2022-12-15T14:19:51.020Z,26.60
2022-12-15T14:25:01.521Z,20.27
2022-12-15T14:27:30.614Z,24.55
2022-12-15T14:30:19.939Z,24.67
2022-12-15T14:32:49.738Z,24.20
2022-12-15T14:35:39.825Z,23.58
2022-12-15T14:38:11.582Z,25.30
2022-12-15T14:40:40.019Z,25.02
2022-12-15T14:45:33.926Z,22.50
2022-12-15T14:48:39.624Z,23.13
2022-12-15T14:50:51.161Z,21.42
2022-12-15T14:53:18.623Z,23.45
2022-12-15T14:55:45.246Z,23.70
2022-12-15T14:58:32.527Z,23.52
2022-12-15T15:01:00.593Z,20.55
2022-12-15T15:03:39.049Z,23.70
2022-12-15T15:06:07.496Z,25.58
2022-12-15T15:13:40.176Z,22.92
2022-12-15T15:16:08.401Z,23.08
2022-12-15T15:18:35.293Z,24.83
2022-12-15T15:21:04.691Z,20.73
2022-12-15T15:23:31.842Z,26.67
2022-12-15T15:26:09.739Z,23.45
2022-12-15T15:28:41.459Z,22.60
2022-12-15T15:31:40.767Z,24.10
2022-12-15T15:34:08.767Z,21.73
2022-12-15T15:36:39.169Z,22.08
2022-12-15T15:39:15.833Z,23.73
2022-12-15T15:41:42.631Z,27.45
2022-12-15T15:44:14.764Z,24.50
2022-12-15T15:46:48.623Z,25.73
2022-12-15T15:49:18.758Z,27.15
2022-12-15T15:51:45.512Z,27.33
2022-12-15T15:54:15.403Z,25.13
2022-12-15T15:56:42.239Z,27.48
2022-12-15T15:59:14.075Z,31.40
2022-12-15T16:01:40.958Z,28.70
2022-12-15T16:04:07.754Z,29.50
2022-12-15T16:06:34.492Z,30.08
2022-12-15T16:09:01.107Z,27.05
2022-12-15T16:11:30.747Z,31.85
2022-12-15T16:13:57.719Z,29.58
2022-12-15T16:16:26.642Z,28.33
2022-12-15T16:18:53.359Z,30.25
2022-12-15T16:21:20.079Z,30.65
2022-12-15T16:23:47.651Z,29.35
2022-12-15T16:26:16.245Z,30.08
2022-12-15T16:28:43.004Z,25.60
2022-12-15T16:31:15.322Z,26.02
2022-12-15T16:33:42.148Z,27.88
2022-12-15T16:36:13.507Z,28.85
2022-12-15T16:38:41.096Z,26.33
2022-12-15T16:41:13.130Z,26.88
2022-12-15T16:43:44.468Z,28.40
2022-12-15T16:46:15.517Z,33.83
2022-12-15T16:48:42.842Z,29.83
2022-12-15T16:51:13.786Z,27.30
2022-12-15T16:53:41.706Z,26.33
2022-12-15T16:56:08.834Z,26.58
2022-12-15T16:58:36.188Z,31.55
2022-12-15T17:01:03.928Z,27.08
2022-12-15T17:03:30.898Z,27.38
2022-12-15T17:06:00.894Z,34.35
2022-12-15T17:08:31.481Z,29.92
2022-12-15T17:10:58.444Z,28.73
2022-12-15T17:13:39.153Z,32.70
2022-12-15T17:16:11.310Z,26.52
2022-12-15T17:18:38.138Z,29.98
2022-12-15T17:21:08.287Z,27.27
2022-12-15T17:23:35.335Z,28.15
2022-12-15T17:26:22.772Z,33.30
2022-12-15T17:28:49.203Z,32.40
2022-12-15T17:31:21.170Z,34.13
2022-12-15T17:33:48.170Z,36.70
2022-12-15T17:36:23.845Z,27.75
2022-12-15T17:38:58.001Z,38.38
2022-12-15T17:41:50.671Z,39.20
2022-12-15T17:44:36.738Z,44.25
2022-12-15T17:47:06.413Z,41.63
2022-12-15T17:49:36.364Z,31.58
2022-12-15T17:52:06.751Z,28.65
2022-12-15T17:54:33.852Z,29.65
2022-12-15T17:57:00.417Z,30.58
2022-12-15T17:59:27.024Z,31.60
2022-12-15T18:01:57.066Z,35.88
2022-12-15T18:04:24.036Z,35.55
2022-12-15T18:06:52.005Z,37.88
2022-12-15T18:09:20.099Z,39.45
2022-12-15T18:11:46.990Z,35.78
2022-12-15T18:14:15.807Z,33.80
2022-12-15T18:16:42.894Z,41.38
2022-12-15T18:19:09.703Z,38.40
2022-12-15T18:21:37.016Z,36.83
2022-12-15T18:24:10.364Z,35.63
2022-12-15T18:26:38.074Z,39.30
2022-12-15T18:29:17.607Z,34.17
2022-12-15T18:31:48.695Z,37.88
2022-12-15T18:34:21.098Z,41.75
2022-12-15T18:36:47.812Z,37.15
2022-12-15T18:39:23.442Z,36.97
2022-12-15T18:41:50.767Z,36.60
2022-12-15T18:44:28.573Z,37.73
2022-12-15T18:46:55.537Z,34.17
2022-12-15T18:49:23.393Z,36.85
2022-12-15T18:51:50.558Z,35.50
2022-12-15T18:54:19.246Z,38.30
2022-12-15T18:56:45.903Z,41.92
2022-12-15T18:59:15.692Z,33.60
2022-12-15T19:01:46.746Z,34.45
2022-12-15T19:04:14.113Z,75.65
2022-12-15T19:06:41.047Z,44.58
2022-12-15T19:09:19.754Z,37.58
2022-12-15T19:12:10.477Z,35.25
2022-12-15T19:14:43.115Z,33.88
2022-12-15T19:17:39.147Z,37.53
2022-12-15T19:20:30.508Z,37.08
2022-12-15T19:22:57.162Z,39.03
2022-12-15T19:25:26.823Z,46.05
2022-12-15T19:27:59.320Z,37.30
2022-12-15T19:30:28.474Z,39.75
2022-12-15T19:32:55.379Z,42.15
2022-12-15T19:35:22.023Z,40.33
2022-12-15T19:37:49.926Z,38.20
2022-12-15T19:40:22.175Z,37.15
2022-12-15T19:42:49.212Z,40.03
2022-12-15T19:45:18.664Z,37.03
2022-12-15T19:47:45.410Z,34.42
2022-12-15T19:50:36.755Z,37.97
2022-12-15T19:53:30.107Z,41.22
2022-12-15T19:55:59.234Z,38.55
2022-12-15T19:58:31.424Z,48.83
2022-12-15T20:01:02.756Z,44.78
2022-12-15T20:03:30.372Z,53.00
2022-12-15T20:05:58.555Z,60.10
2022-12-15T20:08:27.942Z,48.17
2022-12-15T20:10:55.740Z,46.95
2022-12-15T20:13:22.606Z,43.80
2022-12-15T20:15:49.398Z,43.70
2022-12-15T20:18:16.024Z,46.90
2022-12-15T20:20:45.166Z,52.47
2022-12-15T20:23:19.338Z,43.50
2022-12-15T20:25:45.992Z,37.38
2022-12-15T20:28:22.415Z,39.70
2022-12-15T20:30:49.808Z,43.03
2022-12-15T20:33:16.771Z,40.53
2022-12-15T20:35:45.740Z,36.25
2022-12-15T20:38:30.328Z,36.72
2022-12-15T20:40:57.688Z,39.97
2022-12-15T20:43:25.796Z,37.58
2022-12-15T20:46:16.183Z,34.53
2022-12-15T20:48:43.732Z,31.23
2022-12-15T20:51:19.224Z,33.30
2022-12-15T20:53:46.519Z,29.88
2022-12-15T20:56:13.232Z,32.23
2022-12-15T20:58:39.952Z,32.83
2022-12-15T21:01:21.796Z,34.65
2022-12-15T21:03:50.519Z,30.48
2022-12-15T21:06:18.995Z,33.08
2022-12-15T21:08:45.910Z,30.40
2022-12-15T21:11:19.622Z,31.40
2022-12-15T21:13:48.690Z,29.70
2022-12-15T21:16:19.839Z,32.22
2022-12-15T21:19:19.195Z,31.00
2022-12-15T21:21:39.800Z,29.90
2022-12-15T21:24:22.942Z,37.33
2022-12-15T21:26:50.561Z,30.98
2022-12-15T21:29:19.568Z,39.80
2022-12-15T21:31:46.667Z,34.70
2022-12-15T21:34:13.362Z,34.92
2022-12-15T21:36:42.283Z,34.95
2022-12-15T21:39:11.705Z,33.63
2022-12-15T21:41:41.794Z,32.50
2022-12-15T21:44:15.320Z,32.03
2022-12-15T21:46:42.286Z,34.17
2022-12-15T21:49:18.734Z,32.35
2022-12-15T21:51:47.815Z,28.90
2022-12-15T21:54:28.818Z,30.67
2022-12-15T21:56:57.136Z,30.38
2022-12-15T21:59:25.390Z,37.45
2022-12-15T22:04:21.202Z,30.63
2022-12-15T22:06:50.929Z,27.98
2022-12-15T22:09:18.622Z,29.15
2022-12-15T22:11:48.922Z,29.50
2022-12-15T22:14:24.016Z,31.35
2022-12-15T22:16:51.010Z,32.60
2022-12-15T22:19:17.584Z,31.80
2022-12-15T22:21:44.282Z,35.30
2022-12-15T22:24:11.187Z,28.70
2022-12-15T22:26:38.878Z,30.20
2022-12-15T22:29:20.804Z,29.35
2022-12-15T22:31:48.183Z,27.92
2022-12-15T22:34:17.215Z,33.72
2022-12-15T22:36:44.186Z,28.75
2022-12-15T22:39:11.282Z,28.77
2022-12-15T22:41:46.543Z,29.27
2022-12-15T22:44:34.809Z,25.30
2022-12-15T22:47:02.834Z,28.77
2022-12-15T22:49:35.704Z,31.08
2022-12-15T22:52:02.599Z,27.02
2022-12-15T22:54:31.899Z,30.95
2022-12-15T22:57:04.384Z,29.48
2022-12-15T22:59:36.260Z,26.27
2022-12-15T23:02:03.393Z,25.17
2022-12-15T23:04:31.139Z,27.02
2022-12-15T23:06:59.556Z,27.08
2022-12-15T23:09:26.202Z,28.70
2022-12-15T23:11:52.790Z,28.02
2022-12-15T23:14:44.799Z,25.67
2022-12-15T23:17:12.644Z,28.50
2022-12-15T23:19:48.234Z,26.83
2022-12-15T23:22:14.811Z,32.53
2022-12-15T23:24:41.729Z,30.38
2022-12-15T23:27:11.685Z,28.67
2022-12-15T23:29:38.355Z,30.63
2022-12-15T23:32:05.169Z,32.83
2022-12-15T23:34:31.766Z,30.25
2022-12-15T23:36:58.398Z,36.05
2022-12-15T23:39:24.947Z,29.58
2022-12-15T23:41:51.512Z,33.67
2022-12-15T23:44:18.287Z,38.38
2022-12-15T23:46:46.737Z,30.45
2022-12-15T23:49:13.430Z,33.78
2022-12-15T23:51:39.999Z,35.97
2022-12-15T23:54:06.738Z,35.22
2022-12-15T23:56:33.295Z,33.45
2022-12-15T23:58:59.896Z,31.88
